sensor_id;sensor_type;location;lat;lon;timestamp;P1;durP1;ratioP1;P2;durP2;ratioP2
14040;SDS011;7095;51.388;6.196;2022-12-18T00:01:32;40.13;;;20.13;;
14040;SDS011;7095;51.388;6.196;2022-12-18T00:04:05;42.50;;;20.17;;
14040;SDS011;7095;51.388;6.196;2022-12-18T00:06:35;39.33;;;19.63;;
14040;SDS011;7095;51.388;6.196;2022-12-18T00:09:05;44.00;;;20.83;;
14040;SDS011;7095;51.388;6.196;2022-12-18T00:11:34;42.17;;;20.60;;
14040;SDS011;7095;51.388;6.196;2022-12-18T00:14:03;43.57;;;20.87;;
14040;SDS011;7095;51.388;6.196;2022-12-18T00:16:31;40.03;;;20.67;;
14040;SDS011;7095;51.388;6.196;2022-12-18T00:19:02;46.93;;;21.03;;
14040;SDS011;7095;51.388;6.196;2022-12-18T00:21:34;40.63;;;20.87;;
14040;SDS011;7095;51.388;6.196;2022-12-18T00:24:03;40.37;;;18.63;;
14040;SDS011;7095;51.388;6.196;2022-12-18T00:26:33;38.90;;;20.17;;
14040;SDS011;7095;51.388;6.196;2022-12-18T00:29:04;41.97;;;18.53;;
14040;SDS011;7095;51.388;6.196;2022-12-18T00:31:35;37.83;;;20.47;;
14040;SDS011;7095;51.388;6.196;2022-12-18T00:34:05;39.90;;;19.60;;
14040;SDS011;7095;51.388;6.196;2022-12-18T00:36:34;45.10;;;19.97;;
14040;SDS011;7095;51.388;6.196;2022-12-18T00:39:03;45.47;;;20.37;;
14040;SDS011;7095;51.388;6.196;2022-12-18T00:41:34;39.77;;;20.10;;
14040;SDS011;7095;51.388;6.196;2022-12-18T00:44:20;37.17;;;19.07;;
14040;SDS011;7095;51.388;6.196;2022-12-18T00:46:50;34.67;;;17.60;;
14040;SDS011;7095;51.388;6.196;2022-12-18T00:49:19;40.87;;;18.83;;
14040;SDS011;7095;51.388;6.196;2022-12-18T00:51:48;37.83;;;19.73;;
14040;SDS011;7095;51.388;6.196;2022-12-18T00:54:20;42.27;;;20.40;;
14040;SDS011;7095;51.388;6.196;2022-12-18T00:56:51;36.33;;;18.03;;
14040;SDS011;7095;51.388;6.196;2022-12-18T00:59:19;36.97;;;18.50;;
14040;SDS011;7095;51.388;6.196;2022-12-18T01:01:49;36.77;;;18.50;;
14040;SDS011;7095;51.388;6.196;2022-12-18T01:04:19;39.10;;;18.70;;
14040;SDS011;7095;51.388;6.196;2022-12-18T01:06:48;37.30;;;19.17;;
14040;SDS011;7095;51.388;6.196;2022-12-18T01:09:16;40.10;;;18.93;;
14040;SDS011;7095;51.388;6.196;2022-12-18T01:11:45;38.30;;;19.47;;
14040;SDS011;7095;51.388;6.196;2022-12-18T01:14:15;36.23;;;17.90;;
14040;SDS011;7095;51.388;6.196;2022-12-18T01:16:43;39.30;;;18.77;;
14040;SDS011;7095;51.388;6.196;2022-12-18T01:19:12;40.13;;;18.83;;
14040;SDS011;7095;51.388;6.196;2022-12-18T01:21:40;38.03;;;18.07;;
14040;SDS011;7095;51.388;6.196;2022-12-18T01:24:10;32.60;;;17.27;;
14040;SDS011;7095;51.388;6.196;2022-12-18T01:26:40;33.77;;;17.83;;
14040;SDS011;7095;51.388;6.196;2022-12-18T01:29:09;34.10;;;17.53;;
14040;SDS011;7095;51.388;6.196;2022-12-18T01:31:39;34.53;;;16.57;;
14040;SDS011;7095;51.388;6.196;2022-12-18T01:34:08;34.63;;;18.77;;
14040;SDS011;7095;51.388;6.196;2022-12-18T01:36:37;37.73;;;18.40;;
14040;SDS011;7095;51.388;6.196;2022-12-18T01:39:09;33.97;;;16.97;;
14040;SDS011;7095;51.388;6.196;2022-12-18T01:41:41;37.00;;;17.80;;
14040;SDS011;7095;51.388;6.196;2022-12-18T01:47:52;31.97;;;16.80;;
14040;SDS011;7095;51.388;6.196;2022-12-18T01:50:22;36.47;;;17.27;;
14040;SDS011;7095;51.388;6.196;2022-12-18T01:52:53;37.47;;;17.27;;
14040;SDS011;7095;51.388;6.196;2022-12-18T01:55:26;30.97;;;16.43;;
14040;SDS011;7095;51.388;6.196;2022-12-18T01:57:59;39.50;;;18.83;;
14040;SDS011;7095;51.388;6.196;2022-12-18T02:00:29;31.30;;;17.13;;
14040;SDS011;7095;51.388;6.196;2022-12-18T02:02:59;30.93;;;15.70;;
14040;SDS011;7095;51.388;6.196;2022-12-18T02:05:36;34.17;;;15.60;;
14040;SDS011;7095;51.388;6.196;2022-12-18T02:08:13;34.43;;;16.20;;
14040;SDS011;7095;51.388;6.196;2022-12-18T02:10:48;33.43;;;16.80;;
14040;SDS011;7095;51.388;6.196;2022-12-18T02:13:27;34.40;;;16.27;;
14040;SDS011;7095;51.388;6.196;2022-12-18T02:16:06;34.03;;;15.53;;
14040;SDS011;7095;51.388;6.196;2022-12-18T02:18:48;33.60;;;16.80;;
14040;SDS011;7095;51.388;6.196;2022-12-18T02:21:25;36.60;;;16.97;;
14040;SDS011;7095;51.388;6.196;2022-12-18T02:24:03;36.57;;;16.40;;
14040;SDS011;7095;51.388;6.196;2022-12-18T02:26:45;29.93;;;15.60;;
14040;SDS011;7095;51.388;6.196;2022-12-18T02:29:21;32.77;;;16.37;;
14040;SDS011;7095;51.388;6.196;2022-12-18T02:31:55;30.27;;;15.37;;
14040;SDS011;7095;51.388;6.196;2022-12-18T02:34:29;34.77;;;17.80;;
14040;SDS011;7095;51.388;6.196;2022-12-18T02:37:02;34.40;;;16.60;;
14040;SDS011;7095;51.388;6.196;2022-12-18T02:39:34;31.93;;;16.20;;
14040;SDS011;7095;51.388;6.196;2022-12-18T02:42:07;33.07;;;16.80;;
14040;SDS011;7095;51.388;6.196;2022-12-18T02:44:41;32.53;;;17.53;;
14040;SDS011;7095;51.388;6.196;2022-12-18T02:47:13;34.40;;;17.70;;
14040;SDS011;7095;51.388;6.196;2022-12-18T02:49:46;31.80;;;17.30;;
14040;SDS011;7095;51.388;6.196;2022-12-18T02:52:25;32.40;;;15.70;;
14040;SDS011;7095;51.388;6.196;2022-12-18T02:55:06;30.37;;;15.60;;
14040;SDS011;7095;51.388;6.196;2022-12-18T02:57:46;33.33;;;15.97;;
14040;SDS011;7095;51.388;6.196;2022-12-18T03:00:24;31.80;;;16.03;;
14040;SDS011;7095;51.388;6.196;2022-12-18T03:03:02;35.57;;;15.60;;
14040;SDS011;7095;51.388;6.196;2022-12-18T03:05:36;40.90;;;16.93;;
14040;SDS011;7095;51.388;6.196;2022-12-18T03:08:12;32.77;;;16.03;;
14040;SDS011;7095;51.388;6.196;2022-12-18T03:10:49;34.00;;;17.10;;
14040;SDS011;7095;51.388;6.196;2022-12-18T03:13:25;31.03;;;16.07;;
14040;SDS011;7095;51.388;6.196;2022-12-18T03:15:58;34.40;;;16.13;;
14040;SDS011;7095;51.388;6.196;2022-12-18T03:18:30;35.67;;;17.47;;
14040;SDS011;7095;51.388;6.196;2022-12-18T03:21:05;28.70;;;15.07;;
14040;SDS011;7095;51.388;6.196;2022-12-18T03:23:39;35.93;;;16.17;;
14040;SDS011;7095;51.388;6.196;2022-12-18T03:26:14;32.83;;;16.10;;
14040;SDS011;7095;51.388;6.196;2022-12-18T03:28:47;30.43;;;15.67;;
14040;SDS011;7095;51.388;6.196;2022-12-18T03:31:19;29.30;;;15.73;;
14040;SDS011;7095;51.388;6.196;2022-12-18T03:33:51;35.20;;;15.67;;
14040;SDS011;7095;51.388;6.196;2022-12-18T03:36:29;33.73;;;15.67;;
14040;SDS011;7095;51.388;6.196;2022-12-18T03:38:58;35.43;;;15.80;;
14040;SDS011;7095;51.388;6.196;2022-12-18T03:41:28;35.23;;;16.50;;
14040;SDS011;7095;51.388;6.196;2022-12-18T03:44:23;32.53;;;16.23;;
14040;SDS011;7095;51.388;6.196;2022-12-18T03:46:58;26.80;;;15.23;;
14040;SDS011;7095;51.388;6.196;2022-12-18T03:49:38;31.40;;;15.70;;
14040;SDS011;7095;51.388;6.196;2022-12-18T03:52:13;32.53;;;16.33;;
14040;SDS011;7095;51.388;6.196;2022-12-18T03:54:48;35.13;;;16.70;;
14040;SDS011;7095;51.388;6.196;2022-12-18T03:57:18;33.60;;;17.27;;
14040;SDS011;7095;51.388;6.196;2022-12-18T03:59:54;34.30;;;16.97;;
14040;SDS011;7095;51.388;6.196;2022-12-18T04:02:29;32.30;;;16.07;;
14040;SDS011;7095;51.388;6.196;2022-12-18T04:05:02;35.10;;;16.47;;
14040;SDS011;7095;51.388;6.196;2022-12-18T04:07:36;33.00;;;16.53;;
14040;SDS011;7095;51.388;6.196;2022-12-18T04:10:08;32.63;;;14.97;;
14040;SDS011;7095;51.388;6.196;2022-12-18T04:12:40;30.20;;;15.27;;
14040;SDS011;7095;51.388;6.196;2022-12-18T04:15:12;32.53;;;16.20;;
14040;SDS011;7095;51.388;6.196;2022-12-18T04:17:45;37.23;;;16.93;;
14040;SDS011;7095;51.388;6.196;2022-12-18T04:20:20;31.33;;;16.27;;
14040;SDS011;7095;51.388;6.196;2022-12-18T04:22:49;34.77;;;18.27;;
14040;SDS011;7095;51.388;6.196;2022-12-18T04:25:19;31.97;;;15.73;;
14040;SDS011;7095;51.388;6.196;2022-12-18T04:28:04;32.30;;;15.63;;
14040;SDS011;7095;51.388;6.196;2022-12-18T04:30:36;31.93;;;16.10;;
14040;SDS011;7095;51.388;6.196;2022-12-18T04:33:08;32.30;;;16.30;;
14040;SDS011;7095;51.388;6.196;2022-12-18T04:35:38;32.87;;;16.37;;
14040;SDS011;7095;51.388;6.196;2022-12-18T04:38:07;31.50;;;16.83;;
14040;SDS011;7095;51.388;6.196;2022-12-18T04:40:37;33.43;;;16.83;;
14040;SDS011;7095;51.388;6.196;2022-12-18T04:43:15;29.87;;;16.30;;
14040;SDS011;7095;51.388;6.196;2022-12-18T04:45:45;34.40;;;15.77;;
14040;SDS011;7095;51.388;6.196;2022-12-18T04:48:14;28.73;;;15.70;;
14040;SDS011;7095;51.388;6.196;2022-12-18T04:50:42;31.53;;;16.10;;
14040;SDS011;7095;51.388;6.196;2022-12-18T04:53:11;28.70;;;16.10;;
14040;SDS011;7095;51.388;6.196;2022-12-18T04:55:40;29.83;;;16.00;;
14040;SDS011;7095;51.388;6.196;2022-12-18T04:58:08;30.57;;;15.80;;
14040;SDS011;7095;51.388;6.196;2022-12-18T05:00:37;31.70;;;16.30;;
14040;SDS011;7095;51.388;6.196;2022-12-18T05:03:07;30.03;;;16.40;;
14040;SDS011;7095;51.388;6.196;2022-12-18T05:05:36;30.70;;;14.57;;
14040;SDS011;7095;51.388;6.196;2022-12-18T05:08:04;31.27;;;16.60;;
14040;SDS011;7095;51.388;6.196;2022-12-18T05:10:33;25.10;;;14.73;;
14040;SDS011;7095;51.388;6.196;2022-12-18T05:13:04;29.77;;;15.80;;
14040;SDS011;7095;51.388;6.196;2022-12-18T05:15:32;31.87;;;16.30;;
14040;SDS011;7095;51.388;6.196;2022-12-18T05:18:02;34.80;;;15.37;;
14040;SDS011;7095;51.388;6.196;2022-12-18T05:20:33;34.27;;;14.83;;
14040;SDS011;7095;51.388;6.196;2022-12-18T05:23:02;31.83;;;17.23;;
14040;SDS011;7095;51.388;6.196;2022-12-18T05:25:31;31.63;;;15.50;;
14040;SDS011;7095;51.388;6.196;2022-12-18T05:27:59;28.67;;;14.43;;
14040;SDS011;7095;51.388;6.196;2022-12-18T05:30:28;30.67;;;15.80;;
14040;SDS011;7095;51.388;6.196;2022-12-18T05:32:56;30.50;;;16.40;;
14040;SDS011;7095;51.388;6.196;2022-12-18T05:35:25;32.47;;;14.73;;
14040;SDS011;7095;51.388;6.196;2022-12-18T05:37:56;29.53;;;14.90;;
14040;SDS011;7095;51.388;6.196;2022-12-18T05:40:25;28.40;;;14.53;;
14040;SDS011;7095;51.388;6.196;2022-12-18T05:42:54;30.10;;;15.17;;
14040;SDS011;7095;51.388;6.196;2022-12-18T05:45:22;27.73;;;14.40;;
14040;SDS011;7095;51.388;6.196;2022-12-18T05:47:50;26.00;;;14.90;;
14040;SDS011;7095;51.388;6.196;2022-12-18T05:50:19;31.47;;;16.17;;
14040;SDS011;7095;51.388;6.196;2022-12-18T05:52:48;26.23;;;14.77;;
14040;SDS011;7095;51.388;6.196;2022-12-18T05:55:18;27.90;;;14.40;;
14040;SDS011;7095;51.388;6.196;2022-12-18T05:57:46;26.97;;;14.97;;
14040;SDS011;7095;51.388;6.196;2022-12-18T06:00:15;30.47;;;15.20;;
14040;SDS011;7095;51.388;6.196;2022-12-18T06:02:46;27.73;;;16.03;;
14040;SDS011;7095;51.388;6.196;2022-12-18T06:05:15;27.37;;;14.33;;
14040;SDS011;7095;51.388;6.196;2022-12-18T06:07:44;27.70;;;15.00;;
14040;SDS011;7095;51.388;6.196;2022-12-18T06:10:12;31.20;;;14.20;;
14040;SDS011;7095;51.388;6.196;2022-12-18T06:12:43;29.73;;;15.97;;
14040;SDS011;7095;51.388;6.196;2022-12-18T06:15:13;29.63;;;14.70;;
14040;SDS011;7095;51.388;6.196;2022-12-18T06:17:42;25.93;;;14.43;;
14040;SDS011;7095;51.388;6.196;2022-12-18T06:20:12;29.00;;;14.53;;
14040;SDS011;7095;51.388;6.196;2022-12-18T06:22:41;29.53;;;15.20;;
14040;SDS011;7095;51.388;6.196;2022-12-18T06:25:09;30.70;;;15.33;;
14040;SDS011;7095;51.388;6.196;2022-12-18T06:27:39;28.90;;;15.10;;
14040;SDS011;7095;51.388;6.196;2022-12-18T06:30:11;28.10;;;14.80;;
14040;SDS011;7095;51.388;6.196;2022-12-18T06:32:40;28.00;;;15.07;;
14040;SDS011;7095;51.388;6.196;2022-12-18T06:35:09;30.00;;;15.77;;
14040;SDS011;7095;51.388;6.196;2022-12-18T06:37:38;27.27;;;15.60;;
14040;SDS011;7095;51.388;6.196;2022-12-18T06:40:06;30.47;;;16.60;;
14040;SDS011;7095;51.388;6.196;2022-12-18T06:42:35;27.67;;;14.30;;
14040;SDS011;7095;51.388;6.196;2022-12-18T06:45:04;32.13;;;15.50;;
14040;SDS011;7095;51.388;6.196;2022-12-18T06:47:35;30.10;;;15.60;;
14040;SDS011;7095;51.388;6.196;2022-12-18T06:50:04;30.07;;;15.60;;
14040;SDS011;7095;51.388;6.196;2022-12-18T06:52:33;28.33;;;15.97;;
14040;SDS011;7095;51.388;6.196;2022-12-18T06:55:04;29.37;;;16.77;;
14040;SDS011;7095;51.388;6.196;2022-12-18T06:57:33;31.73;;;15.87;;
14040;SDS011;7095;51.388;6.196;2022-12-18T07:00:02;27.90;;;14.67;;
14040;SDS011;7095;51.388;6.196;2022-12-18T07:02:36;31.10;;;16.30;;
14040;SDS011;7095;51.388;6.196;2022-12-18T07:05:05;28.47;;;16.07;;
14040;SDS011;7095;51.388;6.196;2022-12-18T07:07:37;29.13;;;14.77;;
14040;SDS011;7095;51.388;6.196;2022-12-18T07:10:05;33.17;;;17.43;;
14040;SDS011;7095;51.388;6.196;2022-12-18T07:12:34;33.63;;;16.93;;
14040;SDS011;7095;51.388;6.196;2022-12-18T07:15:03;31.03;;;16.67;;
14040;SDS011;7095;51.388;6.196;2022-12-18T07:17:33;31.40;;;17.40;;
14040;SDS011;7095;51.388;6.196;2022-12-18T07:20:04;34.13;;;15.57;;
14040;SDS011;7095;51.388;6.196;2022-12-18T07:22:33;34.80;;;16.60;;
14040;SDS011;7095;51.388;6.196;2022-12-18T07:25:02;30.63;;;15.97;;
14040;SDS011;7095;51.388;6.196;2022-12-18T07:27:31;30.27;;;16.77;;
14040;SDS011;7095;51.388;6.196;2022-12-18T07:30:00;38.20;;;15.80;;
14040;SDS011;7095;51.388;6.196;2022-12-18T07:32:29;31.63;;;17.37;;
14040;SDS011;7095;51.388;6.196;2022-12-18T07:34:58;27.40;;;14.97;;
14040;SDS011;7095;51.388;6.196;2022-12-18T07:37:28;31.90;;;17.23;;
14040;SDS011;7095;51.388;6.196;2022-12-18T07:39:57;36.50;;;17.57;;
14040;SDS011;7095;51.388;6.196;2022-12-18T07:42:26;35.17;;;16.60;;
14040;SDS011;7095;51.388;6.196;2022-12-18T07:45:02;32.03;;;16.03;;
14040;SDS011;7095;51.388;6.196;2022-12-18T07:47:33;27.07;;;14.93;;
14040;SDS011;7095;51.388;6.196;2022-12-18T07:50:02;30.93;;;16.20;;
14040;SDS011;7095;51.388;6.196;2022-12-18T07:52:33;30.43;;;17.03;;
14040;SDS011;7095;51.388;6.196;2022-12-18T07:55:03;29.20;;;14.80;;
14040;SDS011;7095;51.388;6.196;2022-12-18T07:57:33;36.77;;;17.40;;
14040;SDS011;7095;51.388;6.196;2022-12-18T08:00:22;29.37;;;16.03;;
14040;SDS011;7095;51.388;6.196;2022-12-18T08:02:51;30.40;;;16.03;;
14040;SDS011;7095;51.388;6.196;2022-12-18T08:05:20;31.93;;;17.17;;
14040;SDS011;7095;51.388;6.196;2022-12-18T08:07:50;34.27;;;16.73;;
14040;SDS011;7095;51.388;6.196;2022-12-18T08:10:19;28.93;;;16.57;;
14040;SDS011;7095;51.388;6.196;2022-12-18T08:12:49;29.77;;;17.10;;
14040;SDS011;7095;51.388;6.196;2022-12-18T08:15:18;31.07;;;16.43;;
14040;SDS011;7095;51.388;6.196;2022-12-18T08:17:47;34.13;;;17.10;;
14040;SDS011;7095;51.388;6.196;2022-12-18T08:20:16;27.57;;;14.73;;
14040;SDS011;7095;51.388;6.196;2022-12-18T08:22:45;28.90;;;16.50;;
14040;SDS011;7095;51.388;6.196;2022-12-18T08:25:15;33.40;;;16.63;;
14040;SDS011;7095;51.388;6.196;2022-12-18T08:27:44;31.83;;;16.07;;
14040;SDS011;7095;51.388;6.196;2022-12-18T08:30:13;27.73;;;15.10;;
14040;SDS011;7095;51.388;6.196;2022-12-18T08:32:41;32.23;;;16.83;;
14040;SDS011;7095;51.388;6.196;2022-12-18T08:35:10;29.17;;;15.87;;
14040;SDS011;7095;51.388;6.196;2022-12-18T08:37:44;34.00;;;17.00;;
14040;SDS011;7095;51.388;6.196;2022-12-18T08:40:12;27.20;;;15.83;;
14040;SDS011;7095;51.388;6.196;2022-12-18T08:42:43;27.20;;;15.00;;
14040;SDS011;7095;51.388;6.196;2022-12-18T08:45:29;30.57;;;16.43;;
14040;SDS011;7095;51.388;6.196;2022-12-18T08:47:58;28.07;;;15.53;;
14040;SDS011;7095;51.388;6.196;2022-12-18T08:50:26;32.77;;;16.43;;
14040;SDS011;7095;51.388;6.196;2022-12-18T08:52:55;31.83;;;16.13;;
14040;SDS011;7095;51.388;6.196;2022-12-18T08:55:25;29.97;;;16.97;;
14040;SDS011;7095;51.388;6.196;2022-12-18T08:57:54;30.33;;;16.07;;
14040;SDS011;7095;51.388;6.196;2022-12-18T09:00:23;30.30;;;17.07;;
14040;SDS011;7095;51.388;6.196;2022-12-18T09:02:52;26.70;;;14.53;;
14040;SDS011;7095;51.388;6.196;2022-12-18T09:05:21;29.33;;;15.20;;
14040;SDS011;7095;51.388;6.196;2022-12-18T09:07:50;30.13;;;15.63;;
14040;SDS011;7095;51.388;6.196;2022-12-18T09:10:19;30.33;;;15.83;;
14040;SDS011;7095;51.388;6.196;2022-12-18T09:12:50;29.00;;;15.80;;
14040;SDS011;7095;51.388;6.196;2022-12-18T09:15:18;28.07;;;15.37;;
14040;SDS011;7095;51.388;6.196;2022-12-18T09:17:47;29.33;;;15.93;;
14040;SDS011;7095;51.388;6.196;2022-12-18T09:20:17;30.07;;;14.53;;
14040;SDS011;7095;51.388;6.196;2022-12-18T09:22:45;30.10;;;15.63;;
14040;SDS011;7095;51.388;6.196;2022-12-18T09:25:14;28.07;;;15.23;;
14040;SDS011;7095;51.388;6.196;2022-12-18T09:27:42;28.03;;;14.90;;
14040;SDS011;7095;51.388;6.196;2022-12-18T09:30:16;29.40;;;14.70;;
14040;SDS011;7095;51.388;6.196;2022-12-18T09:32:45;28.97;;;15.37;;
14040;SDS011;7095;51.388;6.196;2022-12-18T09:35:16;25.80;;;14.67;;
14040;SDS011;7095;51.388;6.196;2022-12-18T09:37:45;24.27;;;14.27;;
14040;SDS011;7095;51.388;6.196;2022-12-18T09:40:14;35.07;;;15.23;;
14040;SDS011;7095;51.388;6.196;2022-12-18T09:42:45;30.03;;;14.77;;
14040;SDS011;7095;51.388;6.196;2022-12-18T09:45:21;26.13;;;15.37;;
14040;SDS011;7095;51.388;6.196;2022-12-18T09:47:51;33.07;;;15.70;;
14040;SDS011;7095;51.388;6.196;2022-12-18T09:50:26;25.97;;;15.43;;
14040;SDS011;7095;51.388;6.196;2022-12-18T09:52:59;32.13;;;16.33;;
14040;SDS011;7095;51.388;6.196;2022-12-18T09:55:33;30.93;;;16.03;;
14040;SDS011;7095;51.388;6.196;2022-12-18T09:58:10;24.63;;;14.10;;
14040;SDS011;7095;51.388;6.196;2022-12-18T10:00:45;26.60;;;14.30;;
14040;SDS011;7095;51.388;6.196;2022-12-18T10:03:14;27.23;;;14.97;;
14040;SDS011;7095;51.388;6.196;2022-12-18T10:05:45;29.20;;;15.73;;
14040;SDS011;7095;51.388;6.196;2022-12-18T10:08:24;25.13;;;14.83;;
14040;SDS011;7095;51.388;6.196;2022-12-18T10:11:03;28.87;;;16.27;;
14040;SDS011;7095;51.388;6.196;2022-12-18T10:13:50;31.23;;;15.33;;
14040;SDS011;7095;51.388;6.196;2022-12-18T10:16:27;28.67;;;15.43;;
14040;SDS011;7095;51.388;6.196;2022-12-18T10:19:09;25.90;;;13.63;;
14040;SDS011;7095;51.388;6.196;2022-12-18T10:21:51;29.60;;;14.63;;
14040;SDS011;7095;51.388;6.196;2022-12-18T10:24:28;28.40;;;15.37;;
14040;SDS011;7095;51.388;6.196;2022-12-18T10:27:07;28.67;;;15.30;;
14040;SDS011;7095;51.388;6.196;2022-12-18T10:29:41;23.47;;;14.53;;
14040;SDS011;7095;51.388;6.196;2022-12-18T10:32:14;27.63;;;14.60;;
14040;SDS011;7095;51.388;6.196;2022-12-18T10:34:45;27.83;;;14.40;;
14040;SDS011;7095;51.388;6.196;2022-12-18T10:37:19;26.80;;;14.40;;
14040;SDS011;7095;51.388;6.196;2022-12-18T10:40:05;23.40;;;14.57;;
14040;SDS011;7095;51.388;6.196;2022-12-18T10:42:44;28.03;;;14.50;;
14040;SDS011;7095;51.388;6.196;2022-12-18T10:45:13;28.37;;;14.80;;
14040;SDS011;7095;51.388;6.196;2022-12-18T10:47:46;23.87;;;14.20;;
14040;SDS011;7095;51.388;6.196;2022-12-18T10:50:21;26.77;;;15.13;;
14040;SDS011;7095;51.388;6.196;2022-12-18T10:53:18;29.00;;;14.43;;
14040;SDS011;7095;51.388;6.196;2022-12-18T10:55:50;27.17;;;15.40;;
14040;SDS011;7095;51.388;6.196;2022-12-18T10:58:26;29.50;;;15.30;;
14040;SDS011;7095;51.388;6.196;2022-12-18T11:01:03;23.50;;;14.50;;
14040;SDS011;7095;51.388;6.196;2022-12-18T11:03:36;26.87;;;14.73;;
14040;SDS011;7095;51.388;6.196;2022-12-18T11:06:08;25.77;;;15.10;;
14040;SDS011;7095;51.388;6.196;2022-12-18T11:08:38;22.00;;;13.80;;
14040;SDS011;7095;51.388;6.196;2022-12-18T11:11:15;26.43;;;15.40;;
14040;SDS011;7095;51.388;6.196;2022-12-18T11:13:51;24.00;;;13.93;;
14040;SDS011;7095;51.388;6.196;2022-12-18T11:16:27;23.57;;;14.50;;
14040;SDS011;7095;51.388;6.196;2022-12-18T11:19:10;24.93;;;14.40;;
14040;SDS011;7095;51.388;6.196;2022-12-18T11:21:43;27.40;;;14.77;;
14040;SDS011;7095;51.388;6.196;2022-12-18T11:24:17;25.60;;;15.07;;
14040;SDS011;7095;51.388;6.196;2022-12-18T11:26:50;28.03;;;14.50;;
14040;SDS011;7095;51.388;6.196;2022-12-18T11:29:28;26.97;;;15.50;;
14040;SDS011;7095;51.388;6.196;2022-12-18T11:32:19;26.10;;;15.53;;
14040;SDS011;7095;51.388;6.196;2022-12-18T11:34:58;28.10;;;15.00;;
14040;SDS011;7095;51.388;6.196;2022-12-18T11:37:31;26.50;;;15.17;;
14040;SDS011;7095;51.388;6.196;2022-12-18T11:40:03;27.27;;;16.10;;
14040;SDS011;7095;51.388;6.196;2022-12-18T11:42:37;26.03;;;15.40;;
14040;SDS011;7095;51.388;6.196;2022-12-18T11:48:03;25.03;;;14.60;;
14040;SDS011;7095;51.388;6.196;2022-12-18T11:50:43;26.07;;;14.97;;
14040;SDS011;7095;51.388;6.196;2022-12-18T11:53:17;25.93;;;14.53;;
14040;SDS011;7095;51.388;6.196;2022-12-18T11:55:49;30.40;;;15.27;;
14040;SDS011;7095;51.388;6.196;2022-12-18T11:58:29;23.30;;;14.47;;
14040;SDS011;7095;51.388;6.196;2022-12-18T12:01:14;25.63;;;15.53;;
14040;SDS011;7095;51.388;6.196;2022-12-18T12:07:33;25.63;;;15.13;;
14040;SDS011;7095;51.388;6.196;2022-12-18T12:10:22;25.33;;;14.33;;
14040;SDS011;7095;51.388;6.196;2022-12-18T12:13:12;25.00;;;14.93;;
14040;SDS011;7095;51.388;6.196;2022-12-18T12:15:55;29.77;;;15.80;;
14040;SDS011;7095;51.388;6.196;2022-12-18T12:18:33;25.03;;;15.23;;
14040;SDS011;7095;51.388;6.196;2022-12-18T12:21:14;28.80;;;15.20;;
14040;SDS011;7095;51.388;6.196;2022-12-18T12:23:52;24.10;;;14.80;;
14040;SDS011;7095;51.388;6.196;2022-12-18T12:26:30;23.23;;;12.90;;
14040;SDS011;7095;51.388;6.196;2022-12-18T12:29:16;30.23;;;15.87;;
14040;SDS011;7095;51.388;6.196;2022-12-18T12:31:57;27.00;;;15.70;;
14040;SDS011;7095;51.388;6.196;2022-12-18T12:34:38;23.87;;;15.07;;
14040;SDS011;7095;51.388;6.196;2022-12-18T12:37:18;25.40;;;14.07;;
14040;SDS011;7095;51.388;6.196;2022-12-18T12:39:59;25.60;;;15.17;;
14040;SDS011;7095;51.388;6.196;2022-12-18T12:42:51;26.50;;;14.97;;
14040;SDS011;7095;51.388;6.196;2022-12-18T12:45:44;26.27;;;15.60;;
14040;SDS011;7095;51.388;6.196;2022-12-18T12:48:18;28.60;;;15.07;;
14040;SDS011;7095;51.388;6.196;2022-12-18T12:50:56;28.67;;;15.40;;
14040;SDS011;7095;51.388;6.196;2022-12-18T12:53:29;27.97;;;15.60;;
14040;SDS011;7095;51.388;6.196;2022-12-18T12:56:05;25.80;;;15.13;;
14040;SDS011;7095;51.388;6.196;2022-12-18T12:58:38;29.33;;;15.13;;
14040;SDS011;7095;51.388;6.196;2022-12-18T13:01:17;29.87;;;14.83;;
14040;SDS011;7095;51.388;6.196;2022-12-18T13:03:55;29.00;;;15.23;;
14040;SDS011;7095;51.388;6.196;2022-12-18T13:06:32;26.83;;;15.93;;
14040;SDS011;7095;51.388;6.196;2022-12-18T13:09:12;27.43;;;14.83;;
14040;SDS011;7095;51.388;6.196;2022-12-18T13:11:43;28.43;;;15.50;;
14040;SDS011;7095;51.388;6.196;2022-12-18T13:14:31;23.73;;;14.63;;
14040;SDS011;7095;51.388;6.196;2022-12-18T13:17:15;26.50;;;15.67;;
14040;SDS011;7095;51.388;6.196;2022-12-18T13:20:03;32.93;;;16.83;;
14040;SDS011;7095;51.388;6.196;2022-12-18T13:22:40;31.00;;;16.63;;
14040;SDS011;7095;51.388;6.196;2022-12-18T13:25:31;26.13;;;15.23;;
14040;SDS011;7095;51.388;6.196;2022-12-18T13:28:08;26.13;;;15.33;;
14040;SDS011;7095;51.388;6.196;2022-12-18T13:30:41;30.33;;;16.00;;
14040;SDS011;7095;51.388;6.196;2022-12-18T13:36:37;30.43;;;15.30;;
14040;SDS011;7095;51.388;6.196;2022-12-18T13:45:47;28.70;;;16.13;;
14040;SDS011;7095;51.388;6.196;2022-12-18T13:48:27;24.17;;;15.00;;
14040;SDS011;7095;51.388;6.196;2022-12-18T13:50:58;32.90;;;17.67;;
14040;SDS011;7095;51.388;6.196;2022-12-18T13:53:31;25.83;;;15.33;;
14040;SDS011;7095;51.388;6.196;2022-12-18T13:56:03;35.13;;;18.10;;
14040;SDS011;7095;51.388;6.196;2022-12-18T13:58:33;27.30;;;16.10;;
14040;SDS011;7095;51.388;6.196;2022-12-18T14:01:10;31.50;;;16.93;;
14040;SDS011;7095;51.388;6.196;2022-12-18T14:03:50;26.30;;;16.50;;
14040;SDS011;7095;51.388;6.196;2022-12-18T14:06:18;32.90;;;17.73;;
14040;SDS011;7095;51.388;6.196;2022-12-18T14:08:49;29.27;;;16.43;;
14040;SDS011;7095;51.388;6.196;2022-12-18T14:11:19;28.40;;;16.90;;
14040;SDS011;7095;51.388;6.196;2022-12-18T14:13:52;32.50;;;18.23;;
14040;SDS011;7095;51.388;6.196;2022-12-18T14:16:22;26.93;;;16.57;;
14040;SDS011;7095;51.388;6.196;2022-12-18T14:18:52;27.23;;;16.10;;
14040;SDS011;7095;51.388;6.196;2022-12-18T14:21:37;29.03;;;16.33;;
14040;SDS011;7095;51.388;6.196;2022-12-18T14:24:11;32.83;;;17.73;;
14040;SDS011;7095;51.388;6.196;2022-12-18T14:26:45;32.47;;;16.03;;
14040;SDS011;7095;51.388;6.196;2022-12-18T14:29:23;32.93;;;18.17;;
14040;SDS011;7095;51.388;6.196;2022-12-18T14:32:09;30.70;;;17.47;;
14040;SDS011;7095;51.388;6.196;2022-12-18T14:34:44;29.87;;;16.13;;
14040;SDS011;7095;51.388;6.196;2022-12-18T14:37:15;28.83;;;15.77;;
14040;SDS011;7095;51.388;6.196;2022-12-18T14:39:52;29.13;;;16.60;;
14040;SDS011;7095;51.388;6.196;2022-12-18T14:42:23;32.97;;;18.17;;
14040;SDS011;7095;51.388;6.196;2022-12-18T14:48:12;29.47;;;16.53;;
14040;SDS011;7095;51.388;6.196;2022-12-18T14:53:44;31.47;;;16.97;;
14040;SDS011;7095;51.388;6.196;2022-12-18T14:56:21;30.97;;;17.47;;
14040;SDS011;7095;51.388;6.196;2022-12-18T14:58:53;38.00;;;17.90;;
14040;SDS011;7095;51.388;6.196;2022-12-18T15:01:27;28.63;;;16.80;;
14040;SDS011;7095;51.388;6.196;2022-12-18T15:03:59;34.97;;;18.43;;
14040;SDS011;7095;51.388;6.196;2022-12-18T15:06:33;31.23;;;17.13;;
14040;SDS011;7095;51.388;6.196;2022-12-18T15:09:20;29.63;;;16.37;;
14040;SDS011;7095;51.388;6.196;2022-12-18T15:11:55;32.83;;;17.87;;
14040;SDS011;7095;51.388;6.196;2022-12-18T15:14:34;30.40;;;16.83;;
14040;SDS011;7095;51.388;6.196;2022-12-18T15:17:14;49.17;;;18.97;;
14040;SDS011;7095;51.388;6.196;2022-12-18T15:19:48;33.73;;;16.87;;
14040;SDS011;7095;51.388;6.196;2022-12-18T15:22:20;32.43;;;17.57;;
14040;SDS011;7095;51.388;6.196;2022-12-18T15:24:52;33.83;;;17.60;;
14040;SDS011;7095;51.388;6.196;2022-12-18T15:27:23;31.13;;;17.60;;
14040;SDS011;7095;51.388;6.196;2022-12-18T15:30:00;30.70;;;18.60;;
14040;SDS011;7095;51.388;6.196;2022-12-18T15:32:44;37.37;;;20.17;;
14040;SDS011;7095;51.388;6.196;2022-12-18T15:35:15;32.30;;;19.20;;